createdAt,value
2019-03-27T00:04:10.984Z,98335.95
2019-03-27T00:09:13.766Z,98349.59
2019-03-27T00:14:15.855Z,98361.48
2019-03-27T00:19:18.622Z,98356.67
2019-03-27T00:24:21.210Z,98365.02
2019-03-27T00:29:23.160Z,98361.16
2019-03-27T00:34:24.935Z,98367.25
2019-03-27T00:39:26.973Z,98368.97
2019-03-27T00:44:28.687Z,98372.14
2019-03-27T00:49:30.396Z,98373.34
2019-03-27T00:54:33.956Z,98372.22
2019-03-27T00:59:36.086Z,98380.49
2019-03-27T01:04:37.732Z,98387.00
2019-03-27T01:09:39.723Z,98386.82
2019-03-27T01:14:41.530Z,98385.36
2019-03-27T01:19:43.174Z,98386.88
2019-03-27T01:24:44.846Z,98386.72
2019-03-27T01:29:46.555Z,98386.28
2019-03-27T01:34:48.223Z,98381.98
2019-03-27T01:39:51.230Z,98385.88
2019-03-27T01:44:52.834Z,98388.91
2019-03-27T01:49:54.470Z,98399.66
2019-03-27T01:54:56.094Z,98405.12
2019-03-27T01:59:57.747Z,98418.59
2019-03-27T02:04:59.648Z,98420.44
2019-03-27T02:10:01.812Z,98426.24
2019-03-27T02:15:06.966Z,98431.33
2019-03-27T02:20:08.778Z,98454.08
2019-03-27T02:25:10.785Z,98461.16
2019-03-27T02:30:12.952Z,98455.11
2019-03-27T02:35:14.638Z,98460.94
2019-03-27T02:40:16.240Z,98458.76
2019-03-27T02:45:17.938Z,98463.83
2019-03-27T02:50:19.549Z,98462.45
2019-03-27T02:55:21.164Z,98469.34
2019-03-27T03:00:23.210Z,98471.73
2019-03-27T03:05:24.950Z,98481.16
2019-03-27T03:10:26.536Z,98489.56
2019-03-27T03:15:28.500Z,98499.45
2019-03-27T03:20:30.096Z,98502.88
2019-03-27T03:25:31.691Z,98504.97
2019-03-27T03:30:34.562Z,98505.50
2019-03-27T03:35:36.283Z,98506.56
2019-03-27T03:40:38.087Z,98508.37
2019-03-27T03:45:39.698Z,98518.08
2019-03-27T03:50:42.112Z,98514.84
2019-03-27T03:55:44.083Z,98517.41
2019-03-27T04:00:46.314Z,98518.77
2019-03-27T04:05:47.912Z,98525.50
2019-03-27T04:10:49.555Z,98527.36
2019-03-27T04:15:51.263Z,98539.72
2019-03-27T04:20:52.881Z,98542.56
2019-03-27T04:26:09.048Z,98546.48
2019-03-27T04:30:58.273Z,98563.61
2019-03-27T04:36:00.158Z,98563.72
2019-03-27T04:41:01.976Z,98571.15
2019-03-27T04:46:03.587Z,98578.64
2019-03-27T04:51:05.330Z,98584.80
2019-03-27T04:56:07.039Z,98592.81
2019-03-27T05:01:08.702Z,98602.42
2019-03-27T05:06:10.504Z,98610.62
2019-03-27T05:11:12.110Z,98614.80
2019-03-27T05:16:13.723Z,98630.70
2019-03-27T05:21:15.893Z,98639.03
2019-03-27T05:26:17.498Z,98636.02
2019-03-27T05:31:19.177Z,98640.30
2019-03-27T05:36:20.935Z,98644.47
2019-03-27T05:41:22.535Z,98649.18
2019-03-27T05:46:26.601Z,98652.30
2019-03-27T05:51:27.810Z,98667.18
2019-03-27T05:56:29.424Z,98670.53
2019-03-27T06:01:31.094Z,98670.33
2019-03-27T06:06:32.751Z,98681.81
2019-03-27T06:11:34.393Z,98683.23
2019-03-27T06:16:36.066Z,98689.87
2019-03-27T06:21:37.686Z,98697.37
2019-03-27T06:26:39.310Z,98701.93
2019-03-27T06:31:40.960Z,98707.09
2019-03-27T06:36:42.634Z,98718.21
2019-03-27T06:41:44.363Z,98720.50
2019-03-27T06:46:45.979Z,98729.52
2019-03-27T06:51:47.600Z,98735.36
2019-03-27T06:56:49.406Z,98740.83
2019-03-27T07:01:52.164Z,98756.61
2019-03-27T07:06:53.765Z,98757.80
2019-03-27T07:11:55.570Z,98762.53
2019-03-27T07:16:57.227Z,98755.28
2019-03-27T07:21:58.835Z,98763.56
2019-03-27T07:27:00.492Z,98766.45
2019-03-27T07:32:02.208Z,98779.16
2019-03-27T07:37:04.021Z,98783.78
2019-03-27T07:42:05.625Z,98782.31
2019-03-27T07:47:07.249Z,98789.27
2019-03-27T07:52:08.863Z,98785.16
2019-03-27T07:57:10.480Z,98792.08
2019-03-27T08:02:12.093Z,98797.23
2019-03-27T08:07:26.240Z,98801.70
2019-03-27T08:12:17.341Z,98811.39
2019-03-27T08:17:18.961Z,98816.78
2019-03-27T08:22:20.587Z,98822.23
2019-03-27T08:27:22.195Z,98829.61
2019-03-27T08:32:23.852Z,98835.53
2019-03-27T08:37:25.545Z,98840.80
2019-03-27T08:42:27.164Z,98839.80
2019-03-27T08:47:28.879Z,98848.87
2019-03-27T08:52:30.474Z,98857.26
2019-03-27T08:57:32.293Z,98856.55
2019-03-27T09:02:33.901Z,98858.76
2019-03-27T09:07:35.667Z,98855.17
2019-03-27T09:12:37.277Z,98847.47
2019-03-27T09:17:38.931Z,98850.42
2019-03-27T09:22:41.645Z,98853.03
2019-03-27T09:27:43.288Z,98856.08
2019-03-27T09:32:45.026Z,98860.20
2019-03-27T09:37:46.787Z,98858.88
2019-03-27T09:42:48.434Z,98856.03
2019-03-27T09:47:50.554Z,98860.66
2019-03-27T09:52:52.268Z,98850.27
2019-03-27T09:57:54.093Z,98850.91
2019-03-27T10:02:57.222Z,98843.91
2019-03-27T10:07:59.507Z,98831.48
2019-03-27T10:13:01.118Z,98839.17
2019-03-27T10:18:03.286Z,98840.03
2019-03-27T10:23:04.889Z,98848.53
2019-03-27T10:28:06.494Z,98851.66
2019-03-27T10:33:08.317Z,98852.48
2019-03-27T10:38:10.034Z,98860.38
2019-03-27T10:43:11.641Z,98854.16
2019-03-27T10:48:13.881Z,98858.23
2019-03-27T10:53:15.483Z,98857.41
2019-03-27T10:58:18.194Z,98856.34
2019-03-27T11:03:21.138Z,98846.09
2019-03-27T11:08:22.948Z,98852.19
2019-03-27T11:13:24.554Z,98849.13
2019-03-27T11:18:26.192Z,98853.30
2019-03-27T11:23:27.844Z,98849.13
2019-03-27T11:28:29.555Z,98854.12
2019-03-27T11:33:31.175Z,98838.19
2019-03-27T11:38:32.994Z,98833.63
2019-03-27T11:43:34.955Z,98836.65
2019-03-27T11:48:36.872Z,98817.91
2019-03-27T11:53:38.492Z,98834.72
2019-03-27T11:58:40.111Z,98829.41
2019-03-27T12:03:41.726Z,98829.66
2019-03-27T12:08:43.622Z,98829.40
2019-03-27T12:13:45.267Z,98830.66
2019-03-27T12:18:46.876Z,98826.53
2019-03-27T12:23:48.495Z,98819.87
2019-03-27T12:28:50.215Z,98822.35
2019-03-27T12:33:51.934Z,98815.02
2019-03-27T12:38:53.723Z,98814.06
2019-03-27T12:43:55.391Z,98810.77
2019-03-27T12:48:57.268Z,98800.81
2019-03-27T12:53:58.987Z,98800.09
2019-03-27T12:59:00.716Z,98804.73
2019-03-27T13:04:02.948Z,98803.97
2019-03-27T13:09:06.697Z,98807.55
2019-03-27T13:14:09.450Z,98800.47
2019-03-27T13:19:11.228Z,98794.19
2019-03-27T13:24:12.954Z,98787.79
2019-03-27T13:29:14.573Z,98798.84
2019-03-27T13:34:16.184Z,98788.73
2019-03-27T13:39:17.852Z,98794.13
2019-03-27T13:44:19.678Z,98784.61
2019-03-27T13:49:21.463Z,98788.75
2019-03-27T13:54:23.076Z,98776.31
2019-03-27T13:59:24.684Z,98784.86
2019-03-27T14:04:26.508Z,98783.89
2019-03-27T14:09:28.200Z,98790.97
2019-03-27T14:14:30.050Z,98793.46
2019-03-27T14:19:31.722Z,98790.72
2019-03-27T14:24:33.336Z,98792.06
2019-03-27T14:29:34.956Z,98795.02
2019-03-27T14:34:36.566Z,98784.86
2019-03-27T14:39:38.331Z,98783.27
2019-03-27T14:44:40.047Z,98772.59
2019-03-27T14:49:41.721Z,98773.64
2019-03-27T14:54:43.644Z,98770.27
2019-03-27T14:59:45.270Z,98771.47
2019-03-27T15:04:46.874Z,98776.67
2019-03-27T15:09:50.557Z,98783.62
2019-03-27T15:14:53.260Z,98773.91
2019-03-27T15:19:54.918Z,98778.01
2019-03-27T15:24:56.518Z,98784.11
2019-03-27T15:29:58.472Z,98782.21
2019-03-27T15:35:00.542Z,98778.34
2019-03-27T15:40:05.171Z,98770.10
2019-03-27T15:45:07.994Z,98761.02
2019-03-27T15:50:10.378Z,98761.55
2019-03-27T15:55:12.194Z,98761.46
2019-03-27T16:00:15.127Z,98765.78
2019-03-27T16:05:17.165Z,98758.09
2019-03-27T16:10:19.014Z,98753.34
2019-03-27T16:15:20.747Z,98758.44
2019-03-27T16:20:22.559Z,98757.51
2019-03-27T16:25:24.270Z,98760.98
2019-03-27T16:30:26.855Z,98765.23
2019-03-27T16:35:28.479Z,98770.12
2019-03-27T16:40:45.006Z,98767.13
2019-03-27T16:45:47.133Z,98775.59
2019-03-27T16:50:49.404Z,98782.69
2019-03-27T16:55:51.865Z,98788.79
2019-03-27T17:00:53.593Z,98796.27
2019-03-27T17:05:55.204Z,98798.56
2019-03-27T17:10:56.853Z,98802.33
2019-03-27T17:15:58.575Z,98802.60
2019-03-27T17:21:00.456Z,98800.40
2019-03-27T17:26:02.557Z,98807.09
2019-03-27T17:31:04.676Z,98807.03
2019-03-27T17:36:06.447Z,98807.28
2019-03-27T17:41:08.240Z,98811.67
2019-03-27T17:46:10.098Z,98826.03
2019-03-27T17:51:11.739Z,98821.70
2019-03-27T17:56:13.460Z,98826.87
2019-03-27T18:01:15.286Z,98824.64
2019-03-27T18:06:16.968Z,98828.17
2019-03-27T18:11:18.615Z,98834.13
2019-03-27T18:16:20.227Z,98823.19
2019-03-27T18:21:21.832Z,98828.30
2019-03-27T18:26:25.135Z,98829.77
2019-03-27T18:31:26.742Z,98838.76
2019-03-27T18:36:28.418Z,98839.04
2019-03-27T18:41:30.107Z,98846.30
2019-03-27T18:46:31.700Z,98844.09
2019-03-27T18:51:33.309Z,98843.09
2019-03-27T18:56:34.916Z,98840.33
2019-03-27T19:01:36.632Z,98839.71
2019-03-27T19:06:38.888Z,98840.97
2019-03-27T19:11:40.570Z,98845.91
2019-03-27T19:16:44.016Z,98843.70
2019-03-27T19:21:45.633Z,98847.14
2019-03-27T19:26:48.510Z,98846.89
2019-03-27T19:31:50.310Z,98849.86
2019-03-27T19:36:52.122Z,98852.30
2019-03-27T19:41:53.858Z,98854.61
2019-03-27T19:46:55.670Z,98851.13
2019-03-27T19:51:57.277Z,98859.44
2019-03-27T19:56:59.116Z,98865.75
2019-03-27T20:02:00.928Z,98875.33
2019-03-27T20:07:02.778Z,98874.56
2019-03-27T20:12:04.582Z,98873.17
2019-03-27T20:17:06.599Z,98875.55
2019-03-27T20:22:08.523Z,98880.88
2019-03-27T20:27:10.340Z,98891.41
2019-03-27T20:32:12.059Z,98888.66
2019-03-27T20:37:13.900Z,98886.40
2019-03-27T20:42:15.678Z,98883.91
2019-03-27T20:47:17.432Z,98887.59
2019-03-27T20:52:19.151Z,98884.62
2019-03-27T20:57:20.875Z,98885.47
2019-03-27T21:02:22.809Z,98891.86
2019-03-27T21:07:25.950Z,98893.64
2019-03-27T21:12:27.682Z,98889.70
2019-03-27T21:17:29.332Z,98884.58
2019-03-27T21:22:30.949Z,98888.63
2019-03-27T21:27:34.777Z,98890.99
2019-03-27T21:32:36.711Z,98888.67
2019-03-27T21:37:38.369Z,98896.19
2019-03-27T21:42:40.034Z,98896.03
2019-03-27T21:47:41.696Z,98905.30
2019-03-27T21:52:43.690Z,98905.57
2019-03-27T21:57:46.399Z,98907.86
2019-03-27T22:02:48.013Z,98915.81
2019-03-27T22:07:49.615Z,98920.94
2019-03-27T22:12:51.332Z,98927.31
2019-03-27T22:17:52.984Z,98927.98
2019-03-27T22:22:54.627Z,98925.56
2019-03-27T22:27:56.390Z,98917.44
2019-03-27T22:32:58.098Z,98922.39
2019-03-27T22:37:59.707Z,98922.25
2019-03-27T22:43:01.612Z,98931.39
2019-03-27T22:48:03.531Z,98937.66
2019-03-27T22:53:05.291Z,98938.26
2019-03-27T22:58:06.899Z,98937.06
2019-03-27T23:03:18.130Z,98935.61
2019-03-27T23:08:12.119Z,98932.33
2019-03-27T23:13:13.956Z,98931.16
2019-03-27T23:18:15.710Z,98927.52
2019-03-27T23:23:17.378Z,98918.84
2019-03-27T23:28:18.983Z,98919.51
2019-03-27T23:33:20.684Z,98913.11
2019-03-27T23:38:22.295Z,98911.39
2019-03-27T23:43:24.105Z,98915.34
2019-03-27T23:48:25.942Z,98912.56
2019-03-27T23:53:27.544Z,98913.23
2019-03-27T23:58:29.161Z,98908.50
